Time;durP1;ratioP1;P1;durP2;ratioP2;P2;SDS_P1;SDS_P2;PMS_P1;PMS_P2;Temp;Humidity;BMP_temperature;BMP_pressure;BME280_temperature;BME280_humidity;BME280_pressure;Samples;Min_cycle;Max_cycle;Signal;HPM_P1;HPM_P2
2023/05/18 00:00:13;;;;;;;;;;;7.30;49.80;;;;;;4992312;28;19936;-71
2023/05/18 00:02:39;;;;;;;;;;;7.30;50.70;;;;;;4991869;28;19949;-71
2023/05/18 00:05:05;;;;;;;;;;;7.30;51.50;;;;;;4993969;28;20326;-71
2023/05/18 00:07:32;;;;;;;;;;;7.40;52.00;;;;;;4993613;28;19914;-72
2023/05/18 00:09:58;;;;;;;;;;;7.40;51.90;;;;;;4992286;28;20025;-72
2023/05/18 00:12:24;;;;;;;;;;;7.40;51.80;;;;;;4990929;28;19997;-72
2023/05/18 00:14:49;;;;;;;;;;;7.30;51.80;;;;;;4993783;28;19917;-72
2023/05/18 00:17:15;;;;;;;;;;;7.30;51.80;;;;;;4993675;28;19960;-72
2023/05/18 00:19:40;;;;;;;;;;;7.40;51.40;;;;;;4991682;28;19921;-72
2023/05/18 00:22:06;;;;;;;;;;;7.30;51.30;;;;;;4992139;28;19913;-72
2023/05/18 00:24:32;;;;;;;;;;;7.30;51.30;;;;;;4993324;28;19918;-72
2023/05/18 00:26:57;;;;;;;;;;;7.30;51.20;;;;;;4993378;28;19918;-72
2023/05/18 00:29:22;;;;;;;;;;;7.20;51.20;;;;;;4993668;28;19914;-72
2023/05/18 00:31:48;;;;;;;;;;;7.20;51.10;;;;;;4991757;28;19914;-72
2023/05/18 00:34:14;;;;;;;;;;;7.20;51.50;;;;;;4992998;28;20421;-72
2023/05/18 00:36:40;;;;;;;;;;;7.10;51.40;;;;;;4992987;28;19933;-72
2023/05/18 00:39:06;;;;;;;;;;;7.10;51.60;;;;;;4993169;28;19918;-72
2023/05/18 00:41:31;;;;;;;;;;;7.10;51.70;;;;;;4989929;28;19940;-72
2023/05/18 00:43:58;;;;;;;;;;;7.00;52.00;;;;;;4992975;28;20016;-72
2023/05/18 00:46:24;;;;;;;;;;;7.00;51.80;;;;;;4992943;28;19984;-72
2023/05/18 00:48:50;;;;;;;;;;;7.00;51.80;;;;;;4993119;28;20389;-72
2023/05/18 00:51:17;;;;;;;;;;;7.00;51.70;;;;;;4989391;28;19914;-72
2023/05/18 00:53:42;;;;;;;;;;;6.90;51.80;;;;;;4992644;28;19945;-72
2023/05/18 00:56:09;;;;;;;;;;;6.90;51.90;;;;;;4992665;28;19984;-71
2023/05/18 00:58:34;;;;;;;;;;;6.90;52.00;;;;;;4992716;28;19921;-72
2023/05/18 01:01:01;;;;;;;;;;;6.90;52.20;;;;;;4995619;28;19921;-72
2023/05/18 01:03:28;;;;;;;;;;;6.80;52.10;;;;;;5002918;28;19910;-72
2023/05/18 01:05:56;;;;;;;;;;;6.80;52.20;;;;;;4975498;28;20008;-72
2023/05/18 01:08:26;;;;;;;;;;;6.80;52.30;;;;;;4992852;28;19917;-72
2023/05/18 01:11:06;;;;;;;;;;;6.70;52.40;;;;;;4992749;28;19914;-72
2023/05/18 01:13:38;;;;;;;;;;;6.80;53.10;;;;;;4992624;28;20387;-72
2023/05/18 01:16:06;;;;;;;;;;;6.80;53.60;;;;;;4992476;28;19977;-72
2023/05/18 01:18:38;;;;;;;;;;;6.80;54.40;;;;;;4974893;28;19921;-72
2023/05/18 01:21:09;;;;;;;;;;;6.80;54.80;;;;;;4992558;28;19953;-72
2023/05/18 01:23:51;;;;;;;;;;;6.90;54.90;;;;;;4992472;28;19920;-72
2023/05/18 01:26:23;;;;;;;;;;;6.90;54.80;;;;;;4992458;28;20429;-72
2023/05/18 01:28:49;;;;;;;;;;;6.90;54.80;;;;;;4992386;28;19917;-72
2023/05/18 01:31:15;;;;;;;;;;;6.90;54.30;;;;;;4992315;28;20325;-72
2023/05/18 01:33:40;;;;;;;;;;;6.90;54.70;;;;;;4992501;28;19914;-72
2023/05/18 01:36:06;;;;;;;;;;;6.80;54.50;;;;;;4992373;28;19984;-72
2023/05/18 01:38:32;;;;;;;;;;;6.80;54.30;;;;;;4992443;28;19941;-72
2023/05/18 01:41:05;;;;;;;;;;;6.80;54.50;;;;;;4992452;28;19918;-72
2023/05/18 01:43:32;;;;;;;;;;;6.80;54.60;;;;;;4992567;28;19916;-72
2023/05/18 01:46:02;;;;;;;;;;;6.80;55.30;;;;;;4992218;28;20335;-72
2023/05/18 01:48:28;;;;;;;;;;;6.80;55.60;;;;;;4992121;28;19921;-72
2023/05/18 01:50:56;;;;;;;;;;;6.80;55.70;;;;;;4992119;28;19933;-72
2023/05/18 01:53:31;;;;;;;;;;;6.80;55.20;;;;;;4992189;28;20409;-72
2023/05/18 01:55:57;;;;;;;;;;;6.80;54.90;;;;;;4992320;28;19925;-72
2023/05/18 01:58:23;;;;;;;;;;;6.70;54.70;;;;;;4992141;28;19933;-73
2023/05/18 02:00:50;;;;;;;;;;;6.60;54.70;;;;;;4962046;28;20302;-73
2023/05/18 02:03:15;;;;;;;;;;;6.50;54.60;;;;;;4980499;28;20488;-72
2023/05/18 02:05:41;;;;;;;;;;;6.50;54.60;;;;;;4975822;28;20004;-72
2023/05/18 02:08:06;;;;;;;;;;;6.40;54.50;;;;;;4973317;28;19914;-72
2023/05/18 02:10:32;;;;;;;;;;;6.40;54.70;;;;;;4992377;28;19921;-72
2023/05/18 02:12:57;;;;;;;;;;;6.30;54.80;;;;;;4992037;28;19914;-72
2023/05/18 02:15:22;;;;;;;;;;;6.30;54.70;;;;;;4992419;28;19921;-72
2023/05/18 02:17:48;;;;;;;;;;;6.20;54.70;;;;;;4991966;28;19920;-73
2023/05/18 02:20:17;;;;;;;;;;;6.20;54.80;;;;;;4991781;28;19917;-72
2023/05/18 02:22:42;;;;;;;;;;;6.20;54.80;;;;;;4992089;28;20358;-72
2023/05/18 02:25:08;;;;;;;;;;;6.20;54.90;;;;;;4992334;28;19975;-72
2023/05/18 02:27:35;;;;;;;;;;;6.10;55.00;;;;;;4999721;28;20267;-72
2023/05/18 02:30:03;;;;;;;;;;;6.10;54.90;;;;;;5011777;28;19948;-72
2023/05/18 02:32:28;;;;;;;;;;;6.10;54.70;;;;;;5011680;28;19918;-72
2023/05/18 02:34:53;;;;;;;;;;;6.10;54.60;;;;;;5011718;28;20423;-72
2023/05/18 02:37:21;;;;;;;;;;;6.00;54.50;;;;;;5014492;28;19967;-72
2023/05/18 02:39:47;;;;;;;;;;;6.00;54.60;;;;;;5015436;28;19976;-72
2023/05/18 02:42:12;;;;;;;;;;;5.90;54.70;;;;;;4997202;28;20420;-72
2023/05/18 02:44:38;;;;;;;;;;;5.90;54.70;;;;;;5015129;28;20424;-73
2023/05/18 02:47:03;;;;;;;;;;;5.80;54.80;;;;;;5014727;28;19994;-73
2023/05/18 02:49:29;;;;;;;;;;;5.80;54.70;;;;;;5015032;28;19922;-73
2023/05/18 02:51:54;;;;;;;;;;;5.80;54.70;;;;;;5014770;28;19921;-73
2023/05/18 02:54:20;;;;;;;;;;;5.70;54.60;;;;;;4997080;28;19937;-73
2023/05/18 02:56:46;;;;;;;;;;;5.70;54.60;;;;;;4990903;28;20362;-73
2023/05/18 02:59:11;;;;;;;;;;;5.70;54.70;;;;;;4983587;28;19922;-72
2023/05/18 03:01:38;;;;;;;;;;;5.60;54.80;;;;;;4994174;28;20018;-73
2023/05/18 03:04:04;;;;;;;;;;;5.60;54.90;;;;;;4997239;28;19964;-72
2023/05/18 03:06:29;;;;;;;;;;;5.60;54.80;;;;;;5014385;28;19917;-72
2023/05/18 03:08:55;;;;;;;;;;;5.50;54.90;;;;;;5014412;28;19955;-72
2023/05/18 03:11:21;;;;;;;;;;;5.50;54.80;;;;;;5014646;28;19914;-73
2023/05/18 03:13:47;;;;;;;;;;;5.50;54.60;;;;;;5014384;28;19918;-73
2023/05/18 03:16:12;;;;;;;;;;;5.40;54.80;;;;;;5008855;28;19913;-72
2023/05/18 03:18:38;;;;;;;;;;;5.40;54.70;;;;;;4994707;28;19921;-73
2023/05/18 03:21:04;;;;;;;;;;;5.40;55.00;;;;;;4994492;28;20366;-72
2023/05/18 03:23:30;;;;;;;;;;;5.40;55.20;;;;;;4994666;28;19914;-72
2023/05/18 03:25:55;;;;;;;;;;;5.40;54.90;;;;;;4994690;28;19936;-72
2023/05/18 03:28:21;;;;;;;;;;;5.40;55.00;;;;;;4994737;28;19953;-72
2023/05/18 03:30:46;;;;;;;;;;;5.30;55.20;;;;;;4994351;28;19972;-72
2023/05/18 03:33:12;;;;;;;;;;;5.30;55.10;;;;;;4994348;28;19910;-72
2023/05/18 03:35:39;;;;;;;;;;;5.30;55.10;;;;;;4994452;28;19925;-72
2023/05/18 03:38:05;;;;;;;;;;;5.30;55.20;;;;;;4994365;28;19933;-72
2023/05/18 03:40:30;;;;;;;;;;;5.30;55.10;;;;;;4994600;28;19917;-72
2023/05/18 03:42:56;;;;;;;;;;;5.30;55.10;;;;;;4994610;28;19961;-72
2023/05/18 03:45:21;;;;;;;;;;;5.40;55.10;;;;;;4994546;28;19964;-72
2023/05/18 03:47:47;;;;;;;;;;;5.40;55.20;;;;;;4992465;28;19928;-72
2023/05/18 03:50:12;;;;;;;;;;;5.50;55.30;;;;;;4993408;28;19949;-72
2023/05/18 03:52:38;;;;;;;;;;;5.60;55.50;;;;;;4993278;28;20333;-73
2023/05/18 03:55:04;;;;;;;;;;;5.70;55.70;;;;;;4993199;28;19914;-72
2023/05/18 03:57:30;;;;;;;;;;;5.90;55.90;;;;;;4994657;28;20289;-73
2023/05/18 03:59:56;;;;;;;;;;;6.10;56.00;;;;;;4993654;28;20310;-72
2023/05/18 04:02:22;;;;;;;;;;;6.30;56.10;;;;;;4993481;28;19963;-72
2023/05/18 04:04:47;;;;;;;;;;;6.50;56.10;;;;;;4993266;28;20008;-73
2023/05/18 04:07:15;;;;;;;;;;;6.70;56.20;;;;;;4992919;28;20274;-72
2023/05/18 04:09:41;;;;;;;;;;;6.90;56.40;;;;;;4993119;28;20365;-72
2023/05/18 04:12:07;;;;;;;;;;;7.20;56.50;;;;;;4993045;28;19933;-72
2023/05/18 04:14:32;;;;;;;;;;;7.50;56.70;;;;;;4993022;28;20334;-72
2023/05/18 04:17:03;;;;;;;;;;;7.80;56.80;;;;;;4993173;28;20021;-72
2023/05/18 04:19:38;;;;;;;;;;;8.20;56.90;;;;;;4992738;28;19914;-73
2023/05/18 04:22:04;;;;;;;;;;;8.50;57.00;;;;;;4992736;28;19918;-73
2023/05/18 04:24:33;;;;;;;;;;;8.90;57.10;;;;;;4993029;28;19914;-73
2023/05/18 04:26:59;;;;;;;;;;;9.30;57.10;;;;;;4992836;28;19918;-72
2023/05/18 04:29:25;;;;;;;;;;;9.70;57.10;;;;;;4992745;28;20413;-73
2023/05/18 04:31:52;;;;;;;;;;;10.10;57.20;;;;;;4992458;28;19918;-73
2023/05/18 04:34:17;;;;;;;;;;;10.60;57.10;;;;;;5008857;28;20269;-73
2023/05/18 04:36:43;;;;;;;;;;;11.00;57.10;;;;;;5011009;28;19918;-73
2023/05/18 04:39:09;;;;;;;;;;;11.40;56.90;;;;;;5010678;28;19917;-73
2023/05/18 04:41:35;;;;;;;;;;;11.80;56.50;;;;;;5010723;28;19984;-73
2023/05/18 04:44:02;;;;;;;;;;;12.20;56.40;;;;;;5011163;28;19909;-73
2023/05/18 04:46:27;;;;;;;;;;;12.60;56.20;;;;;;5010415;28;19932;-74
2023/05/18 04:48:56;;;;;;;;;;;13.00;55.80;;;;;;5010991;28;20007;-73
2023/05/18 04:51:25;;;;;;;;;;;13.40;55.60;;;;;;4997639;28;20292;-73
2023/05/18 04:53:50;;;;;;;;;;;13.80;55.00;;;;;;4992373;28;20310;-73
2023/05/18 04:56:16;;;;;;;;;;;14.20;54.60;;;;;;4992150;28;19921;-73
2023/05/18 04:58:44;;;;;;;;;;;14.50;54.60;;;;;;4991894;28;19920;-73
2023/05/18 05:01:11;;;;;;;;;;;14.90;54.10;;;;;;4983249;28;19961;-73
2023/05/18 05:03:36;;;;;;;;;;;15.30;53.60;;;;;;4973698;28;19914;-74
2023/05/18 05:06:02;;;;;;;;;;;15.70;52.50;;;;;;4973492;28;19921;-74
2023/05/18 05:08:27;;;;;;;;;;;16.00;52.30;;;;;;4955886;28;19941;-74
2023/05/18 05:10:53;;;;;;;;;;;16.40;51.80;;;;;;4973435;28;19918;-73
2023/05/18 05:13:18;;;;;;;;;;;16.80;51.30;;;;;;4973111;28;19917;-73
2023/05/18 05:15:43;;;;;;;;;;;17.10;49.70;;;;;;4973981;28;20374;-73
2023/05/18 05:18:09;;;;;;;;;;;17.50;49.20;;;;;;4973901;28;19957;-74
2023/05/18 05:20:35;;;;;;;;;;;17.90;48.00;;;;;;4974123;28;19918;-74
2023/05/18 05:23:00;;;;;;;;;;;18.40;47.30;;;;;;4974031;28;19937;-73
2023/05/18 05:25:26;;;;;;;;;;;18.80;46.30;;;;;;4956752;28;19918;-74
2023/05/18 05:27:51;;;;;;;;;;;19.30;45.10;;;;;;4973790;28;19914;-74
2023/05/18 05:30:16;;;;;;;;;;;19.70;43.60;;;;;;4975093;28;19941;-73
2023/05/18 05:32:42;;;;;;;;;;;20.10;42.40;;;;;;4974148;28;20274;-74
2023/05/18 05:35:07;;;;;;;;;;;20.40;41.50;;;;;;4977407;28;20278;-74
2023/05/18 05:37:33;;;;;;;;;;;20.80;40.40;;;;;;4993038;28;19918;-73
2023/05/18 05:39:58;;;;;;;;;;;21.10;39.40;;;;;;4993217;28;20394;-74
2023/05/18 05:42:24;;;;;;;;;;;21.40;37.60;;;;;;4992934;28;19914;-72
2023/05/18 05:44:49;;;;;;;;;;;21.80;37.40;;;;;;4993299;28;20022;-72
2023/05/18 05:47:15;;;;;;;;;;;22.10;36.50;;;;;;4992729;28;19921;-72
2023/05/18 05:49:40;;;;;;;;;;;22.30;35.10;;;;;;4993227;28;20273;-72
2023/05/18 05:52:06;;;;;;;;;;;22.50;34.20;;;;;;4993315;28;19913;-73
2023/05/18 05:54:31;;;;;;;;;;;22.70;33.70;;;;;;4992929;28;20369;-73
2023/05/18 05:56:57;;;;;;;;;;;22.90;32.90;;;;;;4993329;28;20017;-73
2023/05/18 05:59:22;;;;;;;;;;;23.10;31.20;;;;;;4992609;28;20032;-74
2023/05/18 06:01:48;;;;;;;;;;;23.10;30.90;;;;;;4993320;28;19921;-74
2023/05/18 06:04:14;;;;;;;;;;;23.10;29.90;;;;;;4996847;28;19964;-74
2023/05/18 06:06:40;;;;;;;;;;;23.10;29.80;;;;;;5012949;28;19924;-74
2023/05/18 06:09:06;;;;;;;;;;;23.20;29.40;;;;;;4999370;28;19936;-74
2023/05/18 06:11:31;;;;;;;;;;;23.20;28.80;;;;;;4994906;28;19972;-73
2023/05/18 06:13:57;;;;;;;;;;;23.20;29.20;;;;;;4998416;28;19913;-74
2023/05/18 06:16:23;;;;;;;;;;;23.40;29.30;;;;;;5015901;28;20385;-74
2023/05/18 06:18:49;;;;;;;;;;;23.70;29.00;;;;;;5005157;28;19976;-74
2023/05/18 06:21:14;;;;;;;;;;;23.80;28.80;;;;;;4978792;28;19945;-73
2023/05/18 06:23:40;;;;;;;;;;;24.10;28.00;;;;;;4996332;28;20012;-73
2023/05/18 06:26:05;;;;;;;;;;;24.20;27.60;;;;;;5015757;28;19914;-74
2023/05/18 06:28:31;;;;;;;;;;;24.30;27.40;;;;;;5007199;28;19910;-73
2023/05/18 06:30:57;;;;;;;;;;;24.30;27.10;;;;;;4978855;28;19937;-74
2023/05/18 06:33:22;;;;;;;;;;;24.40;27.40;;;;;;4976428;28;19910;-74
2023/05/18 06:35:48;;;;;;;;;;;24.80;27.80;;;;;;5015186;28;19920;-73
2023/05/18 06:38:13;;;;;;;;;;;25.20;27.30;;;;;;4991489;28;19965;-73
2023/05/18 06:40:39;;;;;;;;;;;25.50;26.20;;;;;;4996143;28;20403;-74
2023/05/18 06:43:04;;;;;;;;;;;25.50;25.30;;;;;;4996482;28;19910;-74
2023/05/18 06:45:30;;;;;;;;;;;25.30;25.20;;;;;;5009214;28;19973;-75
2023/05/18 06:47:55;;;;;;;;;;;25.30;25.00;;;;;;4994512;28;20337;-74
2023/05/18 06:50:21;;;;;;;;;;;25.30;25.00;;;;;;4995702;28;19980;-75
2023/05/18 06:52:46;;;;;;;;;;;25.30;24.70;;;;;;4995429;28;20345;-73
2023/05/18 06:55:12;;;;;;;;;;;25.30;24.70;;;;;;5006880;28;19949;-74
2023/05/18 06:57:37;;;;;;;;;;;25.40;24.40;;;;;;5005272;28;19918;-75
2023/05/18 07:00:06;;;;;;;;;;;25.30;24.30;;;;;;4995858;28;19918;-74
2023/05/18 07:02:31;;;;;;;;;;;25.30;24.20;;;;;;4995584;28;19918;-74
2023/05/18 07:04:57;;;;;;;;;;;25.30;24.40;;;;;;5005141;28;20290;-72
2023/05/18 07:07:25;;;;;;;;;;;25.40;24.20;;;;;;4982185;28;19918;-74
2023/05/18 07:09:51;;;;;;;;;;;25.40;24.30;;;;;;4978144;28;19917;-74
2023/05/18 07:12:16;;;;;;;;;;;25.60;24.30;;;;;;4994661;28;19964;-74
2023/05/18 07:14:42;;;;;;;;;;;25.70;23.80;;;;;;4992238;28;20354;-72
2023/05/18 07:17:07;;;;;;;;;;;25.80;23.80;;;;;;4994117;28;19918;-73
2023/05/18 07:19:34;;;;;;;;;;;25.90;23.80;;;;;;4995554;28;19968;-72
2023/05/18 07:21:59;;;;;;;;;;;26.00;23.90;;;;;;4988845;28;19926;-73
2023/05/18 07:24:25;;;;;;;;;;;26.00;23.40;;;;;;4990347;28;19921;-73
2023/05/18 07:26:50;;;;;;;;;;;26.10;23.70;;;;;;4990488;28;19918;-73
2023/05/18 07:29:16;;;;;;;;;;;26.20;23.10;;;;;;4991272;28;19946;-74
2023/05/18 07:31:41;;;;;;;;;;;26.20;22.90;;;;;;4991463;28;20004;-75
2023/05/18 07:34:07;;;;;;;;;;;26.10;23.10;;;;;;4987027;28;20370;-73
2023/05/18 07:36:33;;;;;;;;;;;26.30;23.10;;;;;;4975518;28;20016;-74
2023/05/18 07:39:02;;;;;;;;;;;26.40;23.30;;;;;;4982839;28;19918;-74
2023/05/18 07:41:30;;;;;;;;;;;26.60;22.90;;;;;;4994902;28;19921;-73
2023/05/18 07:43:56;;;;;;;;;;;26.80;23.00;;;;;;4993286;28;20349;-73
2023/05/18 07:46:21;;;;;;;;;;;27.00;22.50;;;;;;4993873;28;19953;-73
2023/05/18 07:48:47;;;;;;;;;;;27.10;22.10;;;;;;4995442;28;20000;-73
2023/05/18 07:51:13;;;;;;;;;;;27.00;22.50;;;;;;4994830;28;19914;-74
2023/05/18 07:53:39;;;;;;;;;;;27.20;22.10;;;;;;5010111;28;19914;-74
2023/05/18 07:56:06;;;;;;;;;;;27.20;22.10;;;;;;4994563;28;19918;-74
2023/05/18 07:58:32;;;;;;;;;;;27.40;22.40;;;;;;4993920;28;20369;-74
2023/05/18 08:00:57;;;;;;;;;;;27.80;22.40;;;;;;4993542;28;19929;-74
2023/05/18 08:03:23;;;;;;;;;;;27.90;21.80;;;;;;4994588;28;19910;-74
2023/05/18 08:05:48;;;;;;;;;;;28.00;21.80;;;;;;4993104;28;20388;-74
2023/05/18 08:08:17;;;;;;;;;;;27.90;21.60;;;;;;4994641;28;20301;-74
2023/05/18 08:10:43;;;;;;;;;;;28.00;21.70;;;;;;4993202;28;19922;-74
2023/05/18 08:13:08;;;;;;;;;;;28.00;21.40;;;;;;4992021;28;20422;-74
2023/05/18 08:15:34;;;;;;;;;;;28.00;21.20;;;;;;4962751;28;19914;-74
2023/05/18 08:18:00;;;;;;;;;;;27.70;20.60;;;;;;4994341;28;19918;-74
2023/05/18 08:20:28;;;;;;;;;;;27.40;21.50;;;;;;4993729;28;19922;-73
2023/05/18 08:22:55;;;;;;;;;;;27.40;21.60;;;;;;4993658;28;19937;-73
2023/05/18 08:25:20;;;;;;;;;;;27.50;21.70;;;;;;4994583;28;19914;-73
2023/05/18 08:27:46;;;;;;;;;;;27.30;21.40;;;;;;4975988;28;20416;-73
2023/05/18 08:30:12;;;;;;;;;;;27.50;21.90;;;;;;4981429;28;19921;-72
2023/05/18 08:32:37;;;;;;;;;;;27.70;21.30;;;;;;4982855;28;19920;-73
2023/05/18 08:35:03;;;;;;;;;;;27.80;21.30;;;;;;4993137;28;20296;-73
2023/05/18 08:37:29;;;;;;;;;;;27.90;21.40;;;;;;4960574;28;19961;-73
2023/05/18 08:39:55;;;;;;;;;;;28.20;21.40;;;;;;4974280;28;20431;-73
2023/05/18 08:42:21;;;;;;;;;;;28.50;20.80;;;;;;4991132;28;19949;-73
2023/05/18 08:45:07;;;;;;;;;;;28.50;20.80;;;;;;4992669;28;19918;-74
2023/05/18 08:47:35;;;;;;;;;;;28.80;20.90;;;;;;4971910;28;19925;-73
2023/05/18 08:50:03;;;;;;;;;;;29.20;20.30;;;;;;4977528;28;21411;-74
2023/05/18 08:52:32;;;;;;;;;;;29.50;20.30;;;;;;4974600;28;19917;-74
2023/05/18 08:54:59;;;;;;;;;;;29.80;20.40;;;;;;4979854;28;19918;-74
2023/05/18 08:57:25;;;;;;;;;;;30.20;20.20;;;;;;4974197;28;19914;-74
2023/05/18 08:59:51;;;;;;;;;;;30.30;19.60;;;;;;4992306;28;20320;-74
2023/05/18 09:02:17;;;;;;;;;;;30.30;19.70;;;;;;4993214;28;19914;-72
2023/05/18 09:04:43;;;;;;;;;;;30.40;19.70;;;;;;4982003;28;19964;-75
2023/05/18 09:07:09;;;;;;;;;;;30.60;19.60;;;;;;4974890;28;19914;-74
2023/05/18 09:09:35;;;;;;;;;;;30.70;19.40;;;;;;4992227;28;19917;-74
2023/05/18 09:12:00;;;;;;;;;;;30.70;19.40;;;;;;4992918;28;20289;-74
2023/05/18 09:14:26;;;;;;;;;;;30.60;19.40;;;;;;4983089;28;19965;-74
2023/05/18 09:16:52;;;;;;;;;;;30.40;19.00;;;;;;4992850;28;19917;-74
2023/05/18 09:19:18;;;;;;;;;;;30.40;19.10;;;;;;4991796;28;19918;-74
2023/05/18 09:21:43;;;;;;;;;;;30.40;19.30;;;;;;4992996;28;20269;-74
2023/05/18 09:24:10;;;;;;;;;;;30.30;19.20;;;;;;4991948;28;19960;-74
2023/05/18 09:26:36;;;;;;;;;;;30.40;19.40;;;;;;4991989;28;19918;-74
2023/05/18 09:29:13;;;;;;;;;;;30.40;18.80;;;;;;4992624;28;19945;-74
2023/05/18 09:31:39;;;;;;;;;;;30.20;19.10;;;;;;4991846;28;19924;-74
2023/05/18 09:34:05;;;;;;;;;;;30.20;19.50;;;;;;4992555;28;20000;-75
2023/05/18 09:36:31;;;;;;;;;;;30.30;19.30;;;;;;4987307;28;20389;-75
2023/05/18 09:38:57;;;;;;;;;;;30.50;19.80;;;;;;4971946;28;19949;-75
2023/05/18 09:41:24;;;;;;;;;;;30.90;19.60;;;;;;4986621;28;19972;-75
2023/05/18 09:43:51;;;;;;;;;;;31.10;19.20;;;;;;4981261;28;19989;-75
2023/05/18 09:46:17;;;;;;;;;;;31.10;18.80;;;;;;4989326;28;20254;-75
2023/05/18 09:48:44;;;;;;;;;;;30.90;18.70;;;;;;4999528;28;19918;-75
2023/05/18 09:51:14;;;;;;;;;;;30.60;19.00;;;;;;5007304;28;19964;-75
2023/05/18 09:53:41;;;;;;;;;;;30.50;19.30;;;;;;4977444;28;20382;-76
2023/05/18 09:56:10;;;;;;;;;;;30.20;19.20;;;;;;4978481;28;20329;-74
2023/05/18 09:58:36;;;;;;;;;;;30.00;19.80;;;;;;4996589;28;19979;-74
2023/05/18 10:01:02;;;;;;;;;;;30.10;20.00;;;;;;4995996;28;19929;-74
2023/05/18 10:03:32;;;;;;;;;;;30.30;20.20;;;;;;5011129;28;20373;-75
2023/05/18 10:06:05;;;;;;;;;;;30.70;19.70;;;;;;5014401;28;19917;-75
2023/05/18 10:08:31;;;;;;;;;;;30.80;19.50;;;;;;5008243;28;19913;-76
2023/05/18 10:10:56;;;;;;;;;;;30.80;19.30;;;;;;4978797;28;19914;-74
2023/05/18 10:13:24;;;;;;;;;;;30.70;19.20;;;;;;4995328;28;19914;-74
2023/05/18 10:15:51;;;;;;;;;;;30.20;19.40;;;;;;4996132;28;20162;-74
2023/05/18 10:18:19;;;;;;;;;;;29.80;19.60;;;;;;4995428;28;19914;-75
2023/05/18 10:20:46;;;;;;;;;;;29.80;20.10;;;;;;5010863;28;20394;-75
2023/05/18 10:23:12;;;;;;;;;;;29.80;20.30;;;;;;4995476;28;19925;-74
2023/05/18 10:25:40;;;;;;;;;;;29.90;20.10;;;;;;4996034;28;19928;-74
2023/05/18 10:28:06;;;;;;;;;;;29.60;19.90;;;;;;4994316;28;19921;-74
2023/05/18 10:30:31;;;;;;;;;;;29.10;20.00;;;;;;4993741;28;20324;-74
2023/05/18 10:32:58;;;;;;;;;;;28.30;20.50;;;;;;4995284;28;19914;-75
2023/05/18 10:35:27;;;;;;;;;;;27.80;21.00;;;;;;4993685;28;19925;-75
2023/05/18 10:37:53;;;;;;;;;;;27.70;21.50;;;;;;4958809;28;19961;-74
2023/05/18 10:40:20;;;;;;;;;;;28.00;21.80;;;;;;4976095;28;19964;-74
2023/05/18 10:42:45;;;;;;;;;;;28.30;21.80;;;;;;4976116;28;19969;-74
2023/05/18 10:45:11;;;;;;;;;;;28.40;21.30;;;;;;4975992;28;20291;-74
2023/05/18 10:47:38;;;;;;;;;;;28.40;21.50;;;;;;4975911;28;19922;-74
2023/05/18 10:50:04;;;;;;;;;;;28.60;21.50;;;;;;4976194;28;19910;-74
2023/05/18 10:52:30;;;;;;;;;;;28.70;21.20;;;;;;4975719;28;19923;-73
2023/05/18 10:54:59;;;;;;;;;;;28.70;21.30;;;;;;4975861;28;19914;-73
2023/05/18 10:57:26;;;;;;;;;;;28.90;21.40;;;;;;4958229;28;20057;-73
2023/05/18 10:59:52;;;;;;;;;;;28.80;20.90;;;;;;4958672;28;19914;-74
2023/05/18 11:02:18;;;;;;;;;;;28.80;20.90;;;;;;4958291;28;20301;-74
2023/05/18 11:04:44;;;;;;;;;;;28.60;21.10;;;;;;4975846;28;19964;-74
2023/05/18 11:07:11;;;;;;;;;;;28.30;20.90;;;;;;4976196;28;19922;-74
2023/05/18 11:09:40;;;;;;;;;;;28.00;21.30;;;;;;4959741;28;19940;-75
2023/05/18 11:12:10;;;;;;;;;;;28.10;21.70;;;;;;4979644;28;20402;-74
2023/05/18 11:14:45;;;;;;;;;;;28.30;21.30;;;;;;4975829;28;19910;-74
2023/05/18 11:17:21;;;;;;;;;;;28.20;21.30;;;;;;4975768;28;19926;-74
2023/05/18 11:20:05;;;;;;;;;;;28.00;21.50;;;;;;4975395;28;20390;-74
2023/05/18 11:22:47;;;;;;;;;;;28.00;22.00;;;;;;4975793;28;19922;-74
2023/05/18 11:25:24;;;;;;;;;;;28.10;22.00;;;;;;4975315;28;19910;-75
2023/05/18 11:27:51;;;;;;;;;;;28.20;21.70;;;;;;4975215;28;20337;-74
2023/05/18 11:30:25;;;;;;;;;;;28.00;21.80;;;;;;4957966;28;19910;-74
2023/05/18 11:32:51;;;;;;;;;;;28.10;22.20;;;;;;4975300;28;19914;-74
2023/05/18 11:35:21;;;;;;;;;;;28.30;22.10;;;;;;4957588;28;19910;-75
2023/05/18 11:37:47;;;;;;;;;;;28.60;22.20;;;;;;4975445;28;20382;-74
2023/05/18 11:40:32;;;;;;;;;;;29.00;21.80;;;;;;4974960;28;19915;-75
2023/05/18 11:42:58;;;;;;;;;;;29.20;21.20;;;;;;4975083;28;20013;-74
2023/05/18 11:45:23;;;;;;;;;;;28.80;21.10;;;;;;4974943;28;20294;-76
2023/05/18 11:47:54;;;;;;;;;;;28.60;21.00;;;;;;4974623;28;19918;-73
2023/05/18 11:50:20;;;;;;;;;;;28.30;21.10;;;;;;4974816;28;19914;-74
2023/05/18 11:52:46;;;;;;;;;;;27.80;21.30;;;;;;4974793;28;19910;-74
2023/05/18 11:55:13;;;;;;;;;;;27.60;21.60;;;;;;4975026;28;20000;-74
2023/05/18 11:57:39;;;;;;;;;;;27.50;21.80;;;;;;4974877;28;19925;-74
2023/05/18 12:00:11;;;;;;;;;;;27.40;21.90;;;;;;4974666;28;19969;-75
2023/05/18 12:02:37;;;;;;;;;;;27.40;22.30;;;;;;4942741;28;20034;-73
2023/05/18 12:05:07;;;;;;;;;;;27.50;22.50;;;;;;4974528;28;20077;-74
2023/05/18 12:07:34;;;;;;;;;;;27.70;22.40;;;;;;4956996;28;19933;-74
2023/05/18 12:10:19;;;;;;;;;;;27.90;22.60;;;;;;4999913;28;20384;-74
2023/05/18 12:12:50;;;;;;;;;;;28.20;22.60;;;;;;5013178;28;19917;-74
2023/05/18 12:15:19;;;;;;;;;;;28.20;21.80;;;;;;5013269;28;20005;-74
2023/05/18 12:17:46;;;;;;;;;;;28.20;21.80;;;;;;5013534;28;20004;-74
2023/05/18 12:20:12;;;;;;;;;;;28.20;21.90;;;;;;4995780;28;20284;-74
2023/05/18 12:22:38;;;;;;;;;;;28.20;21.80;;;;;;5013139;28;19940;-74
2023/05/18 12:25:04;;;;;;;;;;;28.30;21.90;;;;;;5013135;28;19917;-74
2023/05/18 12:27:30;;;;;;;;;;;28.50;22.00;;;;;;5013598;28;19928;-74
2023/05/18 12:29:56;;;;;;;;;;;28.70;21.40;;;;;;4995635;28;19909;-75
2023/05/18 12:32:21;;;;;;;;;;;28.60;21.40;;;;;;5013397;28;19917;-74
2023/05/18 12:34:49;;;;;;;;;;;28.50;21.50;;;;;;5013157;28;19924;-75
2023/05/18 12:37:15;;;;;;;;;;;28.30;21.40;;;;;;5013478;28;20329;-75
2023/05/18 12:39:40;;;;;;;;;;;28.00;21.70;;;;;;5012853;28;20016;-75
2023/05/18 12:42:09;;;;;;;;;;;27.80;21.80;;;;;;5013132;28;19937;-73
2023/05/18 12:44:34;;;;;;;;;;;27.70;22.10;;;;;;4996795;28;20004;-74
2023/05/18 12:47:00;;;;;;;;;;;27.50;21.80;;;;;;5012768;28;19972;-74
2023/05/18 12:49:26;;;;;;;;;;;27.20;22.00;;;;;;5009093;28;19909;-74
2023/05/18 12:51:53;;;;;;;;;;;26.80;22.50;;;;;;4992936;28;20408;-74
2023/05/18 12:54:26;;;;;;;;;;;26.70;22.60;;;;;;4992133;28;19910;-74
2023/05/18 12:57:01;;;;;;;;;;;26.60;22.90;;;;;;4993414;28;19917;-74
2023/05/18 12:59:27;;;;;;;;;;;26.50;23.00;;;;;;4993066;28;20386;-74
2023/05/18 13:01:55;;;;;;;;;;;26.30;23.20;;;;;;4993274;28;19941;-74
2023/05/18 13:04:21;;;;;;;;;;;26.20;23.50;;;;;;4975466;28;19916;-74
2023/05/18 13:06:47;;;;;;;;;;;26.10;23.90;;;;;;4993610;28;20365;-74
2023/05/18 13:09:16;;;;;;;;;;;25.90;23.50;;;;;;4992769;28;20428;-74
2023/05/18 13:11:51;;;;;;;;;;;25.50;23.50;;;;;;4993227;28;20266;-73
2023/05/18 13:14:21;;;;;;;;;;;25.30;23.90;;;;;;4992932;28;19933;-74
2023/05/18 13:16:48;;;;;;;;;;;25.20;24.20;;;;;;4992966;28;19918;-73
2023/05/18 13:19:15;;;;;;;;;;;25.40;24.30;;;;;;4992192;28;20386;-73
2023/05/18 13:21:41;;;;;;;;;;;25.50;23.90;;;;;;4992917;28;19973;-75
2023/05/18 13:24:06;;;;;;;;;;;25.60;23.80;;;;;;4992712;28;20390;-74
2023/05/18 13:26:32;;;;;;;;;;;25.60;23.90;;;;;;4975165;28;19932;-74
2023/05/18 13:28:57;;;;;;;;;;;25.70;23.80;;;;;;4992742;28;19910;-72
2023/05/18 13:31:23;;;;;;;;;;;25.80;23.90;;;;;;4993141;28;20358;-73
2023/05/18 13:33:49;;;;;;;;;;;26.10;24.00;;;;;;4992899;28;19937;-73
2023/05/18 13:36:15;;;;;;;;;;;26.20;23.60;;;;;;4992666;28;19953;-74
2023/05/18 13:38:41;;;;;;;;;;;26.20;23.60;;;;;;4992617;28;19932;-74
2023/05/18 13:41:08;;;;;;;;;;;26.20;23.50;;;;;;4975011;28;19968;-74
2023/05/18 13:43:33;;;;;;;;;;;25.90;23.40;;;;;;4992485;28;20408;-73
2023/05/18 13:45:59;;;;;;;;;;;25.40;24.10;;;;;;4992418;28;19917;-73
2023/05/18 13:48:26;;;;;;;;;;;25.10;24.40;;;;;;4992373;28;19918;-73
2023/05/18 13:50:52;;;;;;;;;;;25.10;24.70;;;;;;4992461;28;19918;-74
2023/05/18 13:53:17;;;;;;;;;;;25.00;24.40;;;;;;4992371;28;19914;-74
2023/05/18 13:55:42;;;;;;;;;;;24.90;24.30;;;;;;4992306;28;19925;-74
2023/05/18 13:58:08;;;;;;;;;;;24.80;24.40;;;;;;4992506;28;19957;-74
2023/05/18 14:00:35;;;;;;;;;;;24.80;24.70;;;;;;4992249;28;20385;-73
2023/05/18 14:03:01;;;;;;;;;;;24.80;24.80;;;;;;4992365;28;19918;-74
2023/05/18 14:05:26;;;;;;;;;;;24.90;24.70;;;;;;4992388;28;20004;-74
2023/05/18 14:07:52;;;;;;;;;;;25.00;24.60;;;;;;4975215;28;20004;-73
2023/05/18 14:10:18;;;;;;;;;;;24.90;24.80;;;;;;4992185;28;19914;-74
2023/05/18 14:12:43;;;;;;;;;;;25.00;24.70;;;;;;4992260;28;19921;-75
2023/05/18 14:15:09;;;;;;;;;;;25.00;24.40;;;;;;4992122;28;19945;-73
2023/05/18 14:17:35;;;;;;;;;;;24.80;24.20;;;;;;4992084;28;20297;-73